Time;durP1;ratioP1;P1;durP2;ratioP2;P2;SDS_P1;SDS_P2;PMS_P1;PMS_P2;Temp;Humidity;BMP_temperature;BMP_pressure;BME280_temperature;BME280_humidity;BME280_pressure;Samples;Min_cycle;Max_cycle;Signal;HPM_P1;HPM_P2
2023/04/17 00:00:15;;;;;;;25.00;11.40;;;9.60;99.90;;;;;;7402174;19;19950;-76
2023/04/17 00:02:45;;;;;;;22.40;11.48;;;9.50;99.90;;;;;;7405475;19;19922;-75
2023/04/17 00:05:17;;;;;;;23.88;11.13;;;9.60;99.90;;;;;;7401676;19;19918;-76
2023/04/17 00:07:47;;;;;;;21.90;11.05;;;9.50;99.90;;;;;;7405027;19;19917;-75
2023/04/17 00:10:17;;;;;;;22.25;12.40;;;9.50;99.90;;;;;;7405335;19;19992;-75
2023/04/17 00:12:46;;;;;;;22.85;11.90;;;9.50;99.90;;;;;;7406690;19;19927;-75
2023/04/17 00:15:15;;;;;;;26.30;12.82;;;9.70;99.90;;;;;;7404609;19;19997;-75
2023/04/17 00:17:44;;;;;;;23.55;11.35;;;9.50;99.90;;;;;;7404739;19;19928;-75
2023/04/17 00:20:15;;;;;;;23.58;11.18;;;9.40;99.90;;;;;;7398712;19;19970;-75
2023/04/17 00:22:44;;;;;;;30.95;12.35;;;9.40;99.90;;;;;;7401852;19;19922;-76
2023/04/17 00:25:13;;;;;;;22.20;10.98;;;9.30;99.90;;;;;;7401765;19;19989;-76
2023/04/17 00:27:43;;;;;;;29.60;12.20;;;9.30;99.90;;;;;;7397629;19;19927;-75
2023/04/17 00:30:12;;;;;;;29.90;12.70;;;9.30;99.90;;;;;;7403757;19;19926;-76
2023/04/17 00:32:42;;;;;;;22.52;11.55;;;9.40;99.90;;;;;;7403453;19;19922;-75
2023/04/17 00:35:11;;;;;;;27.75;12.18;;;9.50;99.90;;;;;;7402776;19;19934;-76
2023/04/17 00:37:43;;;;;;;25.27;12.38;;;9.40;99.90;;;;;;7404466;19;19927;-76
2023/04/17 00:40:13;;;;;;;24.60;11.13;;;9.50;99.90;;;;;;7403375;19;19918;-76
2023/04/17 00:42:42;;;;;;;22.38;11.43;;;9.30;99.90;;;;;;7403826;19;20276;-76
2023/04/17 00:45:12;;;;;;;24.73;10.93;;;9.30;99.90;;;;;;7402025;19;19941;-76
2023/04/17 00:47:41;;;;;;;22.88;11.45;;;9.40;99.90;;;;;;7403226;19;19982;-76
2023/04/17 00:50:11;;;;;;;24.75;11.75;;;9.30;99.90;;;;;;7404035;19;19926;-76
2023/04/17 00:52:43;;;;;;;27.65;10.93;;;9.40;99.90;;;;;;7402513;19;19929;-76
2023/04/17 00:55:13;;;;;;;23.77;12.07;;;9.40;99.90;;;;;;7403551;19;19935;-76
2023/04/17 00:57:43;;;;;;;25.83;11.45;;;9.20;99.90;;;;;;7402564;19;19932;-76
2023/04/17 01:00:14;;;;;;;26.85;11.90;;;9.20;99.90;;;;;;7401262;19;20296;-75
2023/04/17 01:02:43;;;;;;;24.08;9.93;;;9.40;99.90;;;;;;7401577;19;20452;-76
2023/04/17 01:05:12;;;;;;;29.00;11.77;;;9.20;99.90;;;;;;7401395;19;19922;-75
2023/04/17 01:07:44;;;;;;;27.45;12.70;;;9.20;99.90;;;;;;7403326;19;19929;-75
2023/04/17 01:10:13;;;;;;;27.17;11.85;;;9.20;99.90;;;;;;7402945;19;19923;-76
2023/04/17 01:12:45;;;;;;;26.95;11.60;;;9.20;99.90;;;;;;7400778;19;19982;-76
2023/04/17 01:15:15;;;;;;;25.83;12.45;;;9.20;99.90;;;;;;7399048;19;19933;-75
2023/04/17 01:17:44;;;;;;;24.75;11.18;;;9.10;99.90;;;;;;7400618;19;19926;-76
2023/04/17 01:20:13;;;;;;;22.20;11.05;;;9.10;99.90;;;;;;7400087;19;19981;-75
2023/04/17 01:22:45;;;;;;;30.65;13.10;;;9.30;99.90;;;;;;7400497;19;19961;-75
2023/04/17 01:25:16;;;;;;;23.88;11.90;;;9.20;99.90;;;;;;7399898;19;19922;-75
2023/04/17 01:27:45;;;;;;;23.70;10.93;;;9.10;99.90;;;;;;7401977;19;20653;-76
2023/04/17 01:30:15;;;;;;;23.30;11.00;;;9.10;99.90;;;;;;7401683;19;19939;-75
2023/04/17 01:32:44;;;;;;;21.00;10.90;;;9.20;99.90;;;;;;7398554;19;19918;-76
2023/04/17 01:35:13;;;;;;;22.38;10.98;;;9.10;99.90;;;;;;7398713;19;19950;-76
2023/04/17 01:37:42;;;;;;;27.05;11.75;;;9.10;99.90;;;;;;7401464;19;19923;-75
2023/04/17 01:40:12;;;;;;;23.23;10.55;;;9.00;99.90;;;;;;7400172;19;19926;-76
2023/04/17 01:42:44;;;;;;;25.65;11.02;;;9.00;99.90;;;;;;7397870;19;19922;-76
2023/04/17 01:45:13;;;;;;;27.65;12.00;;;8.90;99.90;;;;;;7402212;19;19938;-76
2023/04/17 01:47:42;;;;;;;25.02;11.98;;;9.00;99.90;;;;;;7400839;19;19922;-76
2023/04/17 01:50:12;;;;;;;21.88;10.65;;;9.00;99.90;;;;;;7402358;19;19935;-76
2023/04/17 01:52:41;;;;;;;25.88;13.05;;;9.00;99.90;;;;;;7401535;19;19922;-75
2023/04/17 01:55:11;;;;;;;21.95;10.35;;;9.00;99.90;;;;;;7401561;19;19933;-75
2023/04/17 01:57:42;;;;;;;22.30;10.95;;;9.00;99.90;;;;;;7401187;19;19926;-76
2023/04/17 02:00:12;;;;;;;24.98;12.10;;;8.90;99.90;;;;;;7395876;19;19918;-76
2023/04/17 02:02:42;;;;;;;20.70;10.70;;;8.90;99.90;;;;;;7402050;19;20280;-76
2023/04/17 02:05:11;;;;;;;23.27;10.82;;;8.90;99.90;;;;;;7401130;19;19961;-75
2023/04/17 02:07:40;;;;;;;23.63;10.77;;;8.90;99.90;;;;;;7400021;19;19933;-76
2023/04/17 02:10:10;;;;;;;20.85;11.30;;;8.90;99.90;;;;;;7400671;19;19926;-76
2023/04/17 02:12:42;;;;;;;25.65;11.45;;;8.90;99.90;;;;;;7399747;19;19926;-76
2023/04/17 02:15:12;;;;;;;27.13;12.48;;;8.90;99.90;;;;;;7402141;19;19922;-76
2023/04/17 02:17:41;;;;;;;24.60;13.07;;;8.90;99.90;;;;;;7402426;19;19923;-76
2023/04/17 02:20:12;;;;;;;24.73;11.90;;;8.70;99.90;;;;;;7400282;19;19923;-75
2023/04/17 02:22:41;;;;;;;25.08;12.77;;;8.70;99.90;;;;;;7398743;19;19918;-75
2023/04/17 02:25:10;;;;;;;24.33;11.23;;;10.20;99.90;;;;;;7398259;19;19927;-76
2023/04/17 02:27:39;;;;;;;28.33;11.80;;;8.70;99.90;;;;;;7400229;19;19982;-76
2023/04/17 02:30:12;;;;;;;28.40;12.95;;;8.70;99.90;;;;;;7400628;19;19958;-74
2023/04/17 02:32:41;;;;;;;25.00;12.48;;;8.90;99.90;;;;;;7395969;19;20345;-74
2023/04/17 02:35:11;;;;;;;29.10;12.23;;;8.60;99.90;;;;;;7397138;19;19925;-76
2023/04/17 02:37:40;;;;;;;27.58;12.70;;;8.80;99.90;;;;;;7400609;19;19933;-76
2023/04/17 02:40:10;;;;;;;34.80;12.45;;;8.70;99.90;;;;;;7399529;19;19933;-76
2023/04/17 02:42:39;;;;;;;25.25;12.65;;;8.80;99.90;;;;;;7400849;19;19960;-75
2023/04/17 02:45:12;;;;;;;27.63;12.07;;;8.70;99.90;;;;;;7406556;19;20602;-76
2023/04/17 02:47:41;;;;;;;27.38;11.93;;;8.50;99.90;;;;;;7406516;19;19922;-75
2023/04/17 02:50:11;;;;;;;23.05;11.82;;;8.60;99.90;;;;;;7405577;19;19922;-75
2023/04/17 02:52:41;;;;;;;28.23;13.23;;;8.50;99.90;;;;;;7407415;19;19994;-75
2023/04/17 02:55:11;;;;;;;26.15;12.23;;;8.60;99.90;;;;;;7404571;19;19926;-75
2023/04/17 02:57:40;;;;;;;29.73;13.40;;;8.50;99.90;;;;;;7406522;19;19923;-75
2023/04/17 03:00:14;;;;;;;29.02;13.98;;;8.60;99.90;;;;;;7404000;19;19918;-75
2023/04/17 03:02:42;;;;;;;29.33;13.55;;;8.60;99.90;;;;;;7406263;19;19922;-75
2023/04/17 03:05:13;;;;;;;30.10;12.82;;;8.80;99.90;;;;;;7406861;19;20376;-74
2023/04/17 03:07:42;;;;;;;28.25;12.23;;;8.60;99.90;;;;;;7406752;19;20344;-75
2023/04/17 03:10:12;;;;;;;28.98;13.95;;;8.60;99.90;;;;;;7406074;19;19921;-75
2023/04/17 03:12:42;;;;;;;22.48;12.25;;;8.40;99.90;;;;;;7406339;19;19914;-75
2023/04/17 03:15:13;;;;;;;25.35;12.23;;;8.50;99.90;;;;;;7408022;19;19930;-75
2023/04/17 03:17:42;;;;;;;20.95;11.15;;;8.50;99.90;;;;;;7406903;19;19922;-75
2023/04/17 03:20:11;;;;;;;25.40;12.20;;;8.50;99.90;;;;;;7406137;19;20018;-75
2023/04/17 03:22:40;;;;;;;27.70;12.18;;;8.40;99.90;;;;;;7406941;19;19950;-75
2023/04/17 03:25:10;;;;;;;21.88;11.05;;;8.50;99.90;;;;;;7400919;19;19922;-75
2023/04/17 03:27:39;;;;;;;23.88;11.90;;;8.50;99.90;;;;;;7404743;19;19933;-75
2023/04/17 03:30:10;;;;;;;25.00;12.32;;;8.50;99.90;;;;;;7405707;19;19918;-76
2023/04/17 03:32:41;;;;;;;25.42;12.32;;;8.40;99.90;;;;;;7404289;19;19922;-75
2023/04/17 03:35:11;;;;;;;25.75;11.88;;;8.60;99.90;;;;;;7403328;19;20339;-75
2023/04/17 03:37:40;;;;;;;25.05;12.63;;;8.60;99.90;;;;;;7405577;19;19918;-75
2023/04/17 03:40:10;;;;;;;28.67;12.82;;;8.50;99.90;;;;;;7403294;19;19918;-75
2023/04/17 03:42:39;;;;;;;29.20;13.70;;;8.50;99.90;;;;;;7402756;19;19930;-76
2023/04/17 03:45:09;;;;;;;32.08;14.75;;;8.60;99.90;;;;;;7403502;19;19929;-75
2023/04/17 03:47:41;;;;;;;31.90;13.57;;;8.40;99.90;;;;;;7405611;19;22540;-75
2023/04/17 03:50:11;;;;;;;29.27;13.48;;;8.40;99.90;;;;;;7403582;19;20284;-76
2023/04/17 03:52:40;;;;;;;34.55;13.50;;;8.50;99.90;;;;;;7405173;19;19915;-76
2023/04/17 03:55:10;;;;;;;27.98;13.63;;;8.50;99.90;;;;;;7402365;19;19915;-75
2023/04/17 03:57:39;;;;;;;29.30;13.93;;;8.50;99.90;;;;;;7404491;19;19939;-76
2023/04/17 04:00:09;;;;;;;28.98;14.70;;;8.50;99.90;;;;;;7403286;19;19922;-76
2023/04/17 04:02:41;;;;;;;35.47;16.23;;;8.40;99.90;;;;;;7401242;19;19919;-76
2023/04/17 04:05:10;;;;;;;34.28;14.48;;;8.50;99.90;;;;;;7406134;19;19948;-75
2023/04/17 04:07:39;;;;;;;38.45;16.23;;;8.40;99.90;;;;;;7403924;19;19919;-75
2023/04/17 04:10:09;;;;;;;35.13;15.02;;;8.40;99.90;;;;;;7402304;19;20344;-75
2023/04/17 04:12:38;;;;;;;32.33;13.93;;;8.40;99.90;;;;;;7403401;19;19991;-76
2023/04/17 04:15:10;;;;;;;33.53;13.48;;;8.40;99.90;;;;;;7402290;19;20321;-75
2023/04/17 04:17:41;;;;;;;31.80;14.88;;;8.50;99.90;;;;;;7403605;19;19931;-75
2023/04/17 04:20:11;;;;;;;30.38;14.18;;;8.50;99.90;;;;;;7403660;19;19933;-76
2023/04/17 04:22:40;;;;;;;32.17;14.65;;;8.40;99.90;;;;;;7404615;19;19978;-75
2023/04/17 04:25:11;;;;;;;28.40;13.63;;;8.40;99.90;;;;;;7402223;19;19943;-75
2023/04/17 04:27:44;;;;;;;34.05;14.07;;;8.40;99.90;;;;;;7401821;19;19978;-76
2023/04/17 04:30:15;;;;;;;26.80;14.55;;;8.40;99.90;;;;;;7404208;19;19960;-76
2023/04/17 04:32:47;;;;;;;29.95;12.32;;;8.40;99.90;;;;;;7403804;19;19922;-75
2023/04/17 04:35:17;;;;;;;29.20;11.60;;;8.40;99.90;;;;;;7405127;19;19922;-75
2023/04/17 04:37:46;;;;;;;32.22;12.73;;;8.50;99.90;;;;;;7402147;19;20333;-76
2023/04/17 04:40:15;;;;;;;28.75;14.18;;;8.40;99.90;;;;;;7404443;19;19917;-76
2023/04/17 04:42:48;;;;;;;27.92;13.18;;;8.50;99.90;;;;;;7404039;19;19959;-75
2023/04/17 04:45:17;;;;;;;27.60;12.63;;;8.50;99.90;;;;;;7403592;19;19926;-75
2023/04/17 04:47:49;;;;;;;21.20;11.55;;;8.40;99.90;;;;;;7402327;19;20003;-75
2023/04/17 04:50:18;;;;;;;26.05;11.95;;;8.40;99.90;;;;;;7402198;19;19926;-75
2023/04/17 04:52:47;;;;;;;32.13;12.38;;;8.50;99.90;;;;;;7402997;19;20006;-76
2023/04/17 04:55:16;;;;;;;23.77;12.82;;;8.50;99.90;;;;;;7401739;19;19989;-75
2023/04/17 04:57:45;;;;;;;37.30;11.82;;;8.40;99.90;;;;;;7401414;19;20272;-75
2023/04/17 05:00:16;;;;;;;26.23;12.13;;;8.30;99.90;;;;;;7400879;19;19922;-76
2023/04/17 05:02:45;;;;;;;24.75;11.88;;;8.40;99.90;;;;;;7403330;19;19922;-75
2023/04/17 05:05:17;;;;;;;19.40;12.05;;;8.30;99.90;;;;;;7401516;19;19926;-75
2023/04/17 05:07:46;;;;;;;19.58;11.68;;;8.40;99.90;;;;;;7401552;19;19918;-75
2023/04/17 05:10:15;;;;;;;23.95;12.07;;;8.40;99.90;;;;;;7403370;19;20390;-74
2023/04/17 05:12:43;;;;;;;23.48;12.73;;;8.40;99.90;;;;;;7402113;19;19929;-76
2023/04/17 05:15:14;;;;;;;24.05;12.63;;;8.30;99.90;;;;;;7402096;19;20288;-76
2023/04/17 05:17:43;;;;;;;24.23;13.07;;;8.30;99.90;;;;;;7403491;19;19926;-75
2023/04/17 05:20:13;;;;;;;24.25;13.45;;;8.40;99.90;;;;;;7401462;19;19945;-75
2023/04/17 05:22:45;;;;;;;22.85;13.15;;;8.50;99.90;;;;;;7402037;19;19918;-75
2023/04/17 05:25:15;;;;;;;26.17;13.55;;;8.40;99.90;;;;;;7399674;19;19981;-73
2023/04/17 05:27:45;;;;;;;21.60;12.70;;;8.50;99.90;;;;;;7400286;19;19971;-75
2023/04/17 05:30:15;;;;;;;25.50;13.27;;;8.60;99.90;;;;;;7400582;19;19925;-75
2023/04/17 05:32:45;;;;;;;28.30;13.45;;;8.40;99.90;;;;;;7403193;19;19970;-76
2023/04/17 05:35:14;;;;;;;24.83;14.18;;;8.50;99.90;;;;;;7401349;19;20270;-75
2023/04/17 05:37:45;;;;;;;25.20;13.30;;;8.50;99.90;;;;;;7399109;19;20605;-75
2023/04/17 05:40:14;;;;;;;24.52;12.38;;;8.50;99.90;;;;;;7397355;19;19914;-76
2023/04/17 05:42:43;;;;;;;21.65;12.55;;;8.50;99.90;;;;;;7401338;19;19918;-75
2023/04/17 05:45:15;;;;;;;20.80;12.77;;;8.50;99.90;;;;;;7400644;19;19919;-75
2023/04/17 05:47:44;;;;;;;22.33;12.80;;;8.50;99.90;;;;;;7398516;19;19932;-76
2023/04/17 05:50:13;;;;;;;21.00;12.15;;;8.50;99.90;;;;;;7397469;19;20067;-76
2023/04/17 05:52:47;;;;;;;20.20;11.88;;;8.60;99.90;;;;;;7396663;19;19922;-76
2023/04/17 05:55:16;;;;;;;24.65;11.70;;;8.90;99.90;;;;;;7399836;19;19996;-74
2023/04/17 05:57:44;;;;;;;25.42;12.20;;;8.50;99.90;;;;;;7402919;19;19929;-74
2023/04/17 06:00:15;;;;;;;19.23;11.80;;;8.60;99.90;;;;;;7400952;19;19935;-73
2023/04/17 06:02:45;;;;;;;22.52;12.25;;;8.70;99.90;;;;;;7400678;19;19919;-74
2023/04/17 06:05:15;;;;;;;22.02;11.15;;;8.60;99.90;;;;;;7402246;19;19935;-75
2023/04/17 06:07:46;;;;;;;23.33;12.70;;;8.80;99.90;;;;;;7400763;19;19922;-74
2023/04/17 06:10:18;;;;;;;21.80;11.75;;;8.80;99.90;;;;;;7400107;19;19982;-75
2023/04/17 06:12:47;;;;;;;24.85;12.40;;;8.80;99.90;;;;;;7401400;19;19919;-75
2023/04/17 06:15:16;;;;;;;23.50;12.85;;;8.90;99.90;;;;;;7397678;19;19927;-82
2023/04/17 06:17:45;;;;;;;21.60;11.68;;;8.90;99.90;;;;;;7400160;19;20330;-77
2023/04/17 06:20:15;;;;;;;19.67;11.30;;;8.90;99.90;;;;;;7408653;19;20383;-78
2023/04/17 06:22:46;;;;;;;20.90;10.93;;;9.00;99.90;;;;;;7403327;19;20309;-78
2023/04/17 06:25:15;;;;;;;19.58;10.95;;;9.10;99.90;;;;;;7406325;19;20545;-77
2023/04/17 06:27:44;;;;;;;19.95;11.38;;;9.00;99.90;;;;;;7407142;19;20379;-77
2023/04/17 06:30:14;;;;;;;20.20;11.48;;;9.00;99.90;;;;;;7405921;19;19926;-77
2023/04/17 06:32:44;;;;;;;20.73;10.95;;;9.00;99.90;;;;;;7406977;19;19911;-78
2023/04/17 06:35:13;;;;;;;16.25;10.07;;;9.00;99.90;;;;;;7409633;19;19950;-77
2023/04/17 06:37:42;;;;;;;17.38;10.98;;;9.10;99.90;;;;;;7407186;19;19914;-78
2023/04/17 06:40:14;;;;;;;17.52;10.55;;;9.10;99.90;;;;;;7407348;19;19915;-78
2023/04/17 06:42:43;;;;;;;19.02;11.05;;;9.10;99.90;;;;;;7404889;19;19923;-78
2023/04/17 06:45:13;;;;;;;19.25;10.93;;;9.10;99.90;;;;;;7409498;19;19937;-77
2023/04/17 06:47:43;;;;;;;15.95;10.43;;;9.20;99.90;;;;;;7406605;19;19922;-77
2023/04/17 06:50:12;;;;;;;19.20;10.70;;;9.20;99.90;;;;;;7406026;19;19930;-78
2023/04/17 06:52:41;;;;;;;18.42;11.40;;;9.20;99.90;;;;;;7405138;19;19929;-77
2023/04/17 06:55:13;;;;;;;18.13;10.65;;;9.40;99.90;;;;;;7404592;19;19930;-77
2023/04/17 06:57:42;;;;;;;20.35;11.35;;;9.40;99.90;;;;;;7404979;19;19911;-77
2023/04/17 07:00:13;;;;;;;17.58;11.10;;;9.50;99.90;;;;;;7404985;19;20415;-77
2023/04/17 07:02:42;;;;;;;16.10;10.57;;;8.70;99.90;;;;;;7402621;19;20341;-77
2023/04/17 07:05:11;;;;;;;17.15;10.70;;;9.50;99.90;;;;;;7405692;19;19978;-77
2023/04/17 07:07:40;;;;;;;16.00;11.30;;;9.40;99.90;;;;;;7402745;19;20314;-78
2023/04/17 07:10:14;;;;;;;20.23;11.57;;;9.60;99.90;;;;;;7407925;19;20275;-77
2023/04/17 07:12:43;;;;;;;18.15;10.65;;;9.40;99.90;;;;;;7404497;19;19910;-77
2023/04/17 07:15:12;;;;;;;18.38;11.02;;;9.60;99.90;;;;;;7404633;19;19911;-77
2023/04/17 07:17:42;;;;;;;19.45;10.35;;;9.60;99.90;;;;;;7404857;19;19918;-77
2023/04/17 07:20:12;;;;;;;17.75;10.43;;;9.60;99.90;;;;;;7404132;19;19937;-77
2023/04/17 07:22:41;;;;;;;18.90;11.20;;;9.60;99.90;;;;;;7406904;19;19930;-77
2023/04/17 07:25:13;;;;;;;18.55;11.98;;;9.60;99.90;;;;;;7406903;19;19918;-77
2023/04/17 07:27:42;;;;;;;15.68;10.63;;;9.60;99.90;;;;;;7404891;19;19919;-77
2023/04/17 07:30:12;;;;;;;18.85;10.80;;;9.80;99.90;;;;;;7404106;19;19925;-77
2023/04/17 07:32:41;;;;;;;16.77;10.82;;;9.90;99.90;;;;;;7403861;19;19974;-77
2023/04/17 07:35:10;;;;;;;16.20;10.70;;;9.90;99.90;;;;;;7402779;19;19922;-78
2023/04/17 07:37:39;;;;;;;17.00;11.02;;;9.90;99.90;;;;;;7404216;19;19914;-78
2023/04/17 07:40:10;;;;;;;18.25;10.88;;;9.90;99.90;;;;;;7403223;19;19925;-77
2023/04/17 07:42:42;;;;;;;14.15;10.52;;;10.00;99.90;;;;;;7402020;19;19918;-77
2023/04/17 07:45:12;;;;;;;19.13;10.63;;;10.10;99.90;;;;;;7404303;19;19922;-78
2023/04/17 07:47:41;;;;;;;19.10;11.35;;;10.20;99.90;;;;;;7408210;19;19919;-78
2023/04/17 07:50:10;;;;;;;17.60;9.90;;;10.10;99.90;;;;;;7404041;19;19929;-77
2023/04/17 07:52:39;;;;;;;17.23;11.02;;;10.40;99.90;;;;;;7404250;19;19935;-77
2023/04/17 07:55:09;;;;;;;17.52;10.85;;;10.30;99.90;;;;;;7404366;19;19921;-78
2023/04/17 07:57:41;;;;;;;21.30;12.85;;;10.30;99.90;;;;;;7401945;19;19918;-76
2023/04/17 08:00:15;;;;;;;20.20;12.23;;;10.20;99.90;;;;;;7402047;19;20359;-78
2023/04/17 08:02:44;;;;;;;17.80;11.07;;;10.60;99.90;;;;;;7399799;19;19919;-77
2023/04/17 08:05:13;;;;;;;19.98;11.75;;;10.60;99.90;;;;;;7403173;19;19937;-78
2023/04/17 08:07:42;;;;;;;18.08;11.45;;;10.70;99.90;;;;;;7403474;19;20348;-77
2023/04/17 08:10:12;;;;;;;17.15;10.85;;;10.80;99.90;;;;;;7404066;19;19910;-77
2023/04/17 08:12:41;;;;;;;22.40;11.68;;;10.70;99.90;;;;;;7402937;19;19914;-78
2023/04/17 08:15:13;;;;;;;15.85;10.75;;;10.90;99.90;;;;;;7402913;19;19914;-78
2023/04/17 08:17:43;;;;;;;18.13;11.07;;;11.00;99.90;;;;;;7402682;19;19918;-78
2023/04/17 08:20:12;;;;;;;18.73;11.27;;;11.20;99.90;;;;;;7404992;19;19921;-78
2023/04/17 08:22:42;;;;;;;20.08;11.65;;;11.20;99.90;;;;;;7401628;19;19944;-78
2023/04/17 08:25:12;;;;;;;16.48;10.90;;;11.20;99.90;;;;;;7403146;19;19919;-78
2023/04/17 08:27:42;;;;;;;18.92;12.45;;;11.30;99.90;;;;;;7404683;19;19925;-79
2023/04/17 08:30:16;;;;;;;18.08;11.77;;;11.30;99.90;;;;;;7402069;19;19953;-79
2023/04/17 08:32:47;;;;;;;17.17;11.27;;;11.40;99.90;;;;;;7405667;19;19918;-78
2023/04/17 08:35:17;;;;;;;19.38;11.30;;;11.60;99.90;;;;;;7402984;19;20271;-78
2023/04/17 08:37:47;;;;;;;19.20;10.13;;;11.60;99.90;;;;;;7402653;19;19923;-78
2023/04/17 08:40:17;;;;;;;22.83;11.63;;;11.70;99.90;;;;;;7401739;19;19927;-78
2023/04/17 08:42:48;;;;;;;17.55;9.85;;;11.60;99.90;;;;;;7399607;19;19914;-78
2023/04/17 08:45:21;;;;;;;16.38;11.20;;;11.90;99.90;;;;;;7404014;19;19931;-78
2023/04/17 08:47:50;;;;;;;16.73;10.10;;;11.90;99.90;;;;;;7402119;19;19919;-79
2023/04/17 08:50:21;;;;;;;18.75;10.88;;;12.20;99.90;;;;;;7402799;19;19915;-79
2023/04/17 08:52:51;;;;;;;18.52;11.70;;;12.20;99.90;;;;;;7401823;19;19919;-79
2023/04/17 08:55:22;;;;;;;18.17;11.90;;;12.20;99.90;;;;;;7401824;19;19919;-78
2023/04/17 08:57:59;;;;;;;17.80;11.57;;;12.40;99.90;;;;;;7404462;19;19929;-78
2023/04/17 09:00:34;;;;;;;19.02;11.90;;;12.50;99.90;;;;;;7404672;19;19930;-79
2023/04/17 09:03:06;;;;;;;17.35;11.18;;;12.60;99.90;;;;;;7399510;19;19958;-79
2023/04/17 09:05:36;;;;;;;17.42;10.55;;;12.60;99.90;;;;;;7406389;19;19962;-79
2023/04/17 09:08:13;;;;;;;18.45;12.18;;;12.70;99.90;;;;;;7402274;19;19925;-78
2023/04/17 09:10:43;;;;;;;16.45;11.35;;;12.80;99.90;;;;;;7401184;19;20241;-77
2023/04/17 09:13:13;;;;;;;18.30;11.88;;;12.90;99.90;;;;;;7405263;19;19926;-78
2023/04/17 09:15:46;;;;;;;17.63;10.73;;;13.00;99.90;;;;;;7399940;19;19958;-78
2023/04/17 09:18:26;;;;;;;16.67;11.07;;;13.00;99.90;;;;;;7402370;19;19922;-78
2023/04/17 09:20:56;;;;;;;18.20;11.32;;;13.20;99.90;;;;;;7401425;19;19918;-78
2023/04/17 09:23:26;;;;;;;16.02;11.00;;;13.10;99.90;;;;;;7399490;19;19911;-77
2023/04/17 09:26:09;;;;;;;19.63;12.27;;;13.30;99.90;;;;;;7401465;19;20261;-78
2023/04/17 09:28:38;;;;;;;;;;;13.40;99.90;;;;;;7403729;19;20669;-78
2023/04/17 09:31:29;;;;;;;17.65;10.70;;;13.50;99.90;;;;;;7402360;19;19918;-79
2023/04/17 09:33:59;;;;;;;17.23;10.60;;;13.70;99.90;;;;;;7398697;19;19923;-77
2023/04/17 09:36:29;;;;;;;16.85;10.20;;;13.80;99.90;;;;;;7401145;19;19918;-78
2023/04/17 09:38:59;;;;;;;18.10;10.07;;;13.80;99.90;;;;;;7400607;19;19918;-77
2023/04/17 09:41:29;;;;;;;15.65;10.05;;;13.70;99.90;;;;;;7398701;19;19914;-77
2023/04/17 09:44:04;;;;;;;17.33;10.68;;;13.90;99.90;;;;;;7397506;19;19937;-77
2023/04/17 09:46:41;;;;;;;19.38;10.35;;;13.80;99.90;;;;;;7382254;19;20724;-77
2023/04/17 09:49:13;;;;;;;22.05;10.70;;;15.50;99.90;;;;;;7398938;19;20035;-77
2023/04/17 09:51:43;;;;;;;14.60;10.38;;;14.00;99.90;;;;;;7396643;19;19927;-78
2023/04/17 09:54:13;;;;;;;18.50;10.10;;;14.10;99.90;;;;;;7393629;19;20429;-77
2023/04/17 09:56:42;;;;;;;17.92;10.77;;;14.20;99.90;;;;;;7394200;19;19946;-78
2023/04/17 09:59:11;;;;;;;16.95;9.57;;;14.20;99.90;;;;;;7398495;19;19928;-78
2023/04/17 10:01:43;;;;;;;14.93;9.18;;;14.30;99.90;;;;;;7400058;19;19929;-77
2023/04/17 10:04:13;;;;;;;16.98;9.98;;;14.30;99.90;;;;;;7400685;19;19921;-77
2023/04/17 10:06:42;;;;;;;15.52;9.02;;;14.40;99.90;;;;;;7396036;19;19933;-77
2023/04/17 10:09:11;;;;;;;12.80;8.25;;;14.60;99.90;;;;;;7394763;19;20368;-76
2023/04/17 10:11:42;;;;;;;14.80;9.95;;;14.50;99.90;;;;;;7393198;19;19972;-76
2023/04/17 10:14:15;;;;;;;13.27;9.60;;;14.50;99.90;;;;;;7394956;19;20267;-78
2023/04/17 10:16:47;;;;;;;17.33;10.20;;;14.70;99.90;;;;;;7392085;19;19926;-77
2023/04/17 10:19:29;;;;;;;14.93;9.65;;;14.60;99.90;;;;;;7396200;19;19919;-77
2023/04/17 10:22:28;;;;;;;15.18;9.15;;;14.40;99.90;;;;;;7397418;19;19937;-77
2023/04/17 10:25:21;;;;;;;14.55;9.50;;;14.40;99.90;;;;;;7395863;19;19986;-77
2023/04/17 10:27:57;;;;;;;16.75;10.90;;;14.40;99.90;;;;;;7394441;19;20319;-77
2023/04/17 10:30:26;;;;;;;15.38;8.88;;;14.50;99.90;;;;;;7396836;19;19933;-78
2023/04/17 10:33:26;;;;;;;15.25;8.75;;;14.50;99.90;;;;;;7395698;19;19922;-78
2023/04/17 10:35:55;;;;;;;15.05;10.25;;;14.60;99.90;;;;;;7392689;19;20217;-77
2023/04/17 10:38:35;;;;;;;12.98;8.75;;;14.50;99.90;;;;;;7395874;19;19918;-77
2023/04/17 10:41:07;;;;;;;16.42;9.88;;;14.60;99.90;;;;;;7391978;19;19915;-77
2023/04/17 10:43:36;;;;;;;15.35;9.13;;;14.60;99.90;;;;;;7393301;19;19923;-77
2023/04/17 10:46:07;;;;;;;13.40;9.15;;;14.80;99.90;;;;;;7393859;19;19922;-77
2023/04/17 10:48:40;;;;;;;14.75;9.20;;;15.00;99.90;;;;;;7395670;19;19926;-76
2023/04/17 10:51:39;;;;;;;15.18;10.15;;;15.00;99.90;;;;;;7395077;19;20006;-77
2023/04/17 10:54:09;;;;;;;14.93;9.27;;;15.00;99.90;;;;;;7392494;19;19925;-77
2023/04/17 10:56:40;;;;;;;17.00;10.02;;;15.20;99.90;;;;;;7397420;19;19949;-73
2023/04/17 10:59:10;;;;;;;16.80;9.90;;;15.20;99.90;;;;;;7401151;19;19928;-72
2023/04/17 11:01:41;;;;;;;15.35;9.30;;;15.10;99.90;;;;;;7400843;19;19919;-73
2023/04/17 11:04:21;;;;;;;16.08;10.38;;;15.10;99.90;;;;;;7396730;19;19928;-73
2023/04/17 11:06:51;;;;;;;14.40;9.43;;;15.10;99.90;;;;;;7405704;19;19918;-73
2023/04/17 11:09:22;;;;;;;15.10;9.48;;;15.20;99.90;;;;;;7404885;19;19923;-73
2023/04/17 11:11:51;;;;;;;14.10;9.25;;;15.40;99.90;;;;;;7405037;19;19986;-73
2023/04/17 11:14:21;;;;;;;16.33;9.13;;;15.70;99.90;;;;;;7408462;19;19930;-73
2023/04/17 11:16:51;;;;;;;17.50;9.57;;;15.70;99.90;;;;;;7406817;19;19915;-74
2023/04/17 11:19:25;;;;;;;14.27;8.90;;;15.60;99.90;;;;;;7408831;19;19929;-74
2023/04/17 11:21:56;;;;;;;15.02;10.38;;;15.70;99.90;;;;;;7407476;19;19982;-77
2023/04/17 11:24:25;;;;;;;18.77;9.70;;;15.60;99.90;;;;;;7401385;19;19918;-77
2023/04/17 11:26:55;;;;;;;14.98;9.23;;;15.50;99.90;;;;;;7406795;19;20019;-77
2023/04/17 11:29:25;;;;;;;14.88;9.30;;;15.60;99.90;;;;;;7407756;19;19922;-77
2023/04/17 11:31:56;;;;;;;13.70;8.68;;;16.00;99.90;;;;;;7404208;19;19926;-78
2023/04/17 11:34:28;;;;;;;14.13;8.57;;;15.90;99.90;;;;;;7405104;19;19922;-78
2023/04/17 11:36:58;;;;;;;14.20;9.00;;;16.00;99.90;;;;;;7404550;19;19914;-77
2023/04/17 11:39:29;;;;;;;19.83;9.40;;;16.10;99.90;;;;;;7403927;19;19922;-77
2023/04/17 11:41:58;;;;;;;16.40;9.73;;;16.20;99.90;;;;;;7400688;19;19918;-78
2023/04/17 11:44:27;;;;;;;14.40;8.63;;;16.10;99.90;;;;;;7403594;19;19922;-77
2023/04/17 11:46:58;;;;;;;15.10;9.18;;;16.30;99.90;;;;;;7403956;19;19911;-78
2023/04/17 11:49:30;;;;;;;14.90;8.75;;;16.30;99.90;;;;;;7404052;19;19919;-78
2023/04/17 11:52:02;;;;;;;14.88;9.10;;;16.50;99.90;;;;;;7405013;19;19978;-77
2023/04/17 11:54:32;;;;;;;14.80;9.15;;;16.70;99.90;;;;;;7404120;19;19935;-77
2023/04/17 11:57:02;;;;;;;13.48;8.52;;;16.80;99.90;;;;;;7405880;19;19928;-79
2023/04/17 11:59:33;;;;;;;16.10;8.25;;;16.90;99.90;;;;;;7403663;19;19919;-78
2023/04/17 12:02:02;;;;;;;14.35;8.73;;;17.00;99.90;;;;;;7404148;19;20365;-78
2023/04/17 12:04:35;;;;;;;12.07;8.82;;;17.20;99.90;;;;;;7401293;19;20363;-78
2023/04/17 12:07:04;;;;;;;11.85;7.72;;;17.30;99.90;;;;;;7403895;19;20257;-78
2023/04/17 12:09:34;;;;;;;12.55;7.85;;;17.20;99.90;;;;;;7406177;19;19932;-78
2023/04/17 12:12:06;;;;;;;12.30;8.35;;;17.20;99.90;;;;;;7402908;19;19928;-78
2023/04/17 12:14:34;;;;;;;14.70;9.48;;;17.40;99.90;;;;;;7403173;19;20340;-78
2023/04/17 12:17:03;;;;;;;14.98;9.05;;;17.50;99.90;;;;;;7398900;19;19918;-78
2023/04/17 12:19:36;;;;;;;12.10;8.27;;;17.70;99.90;;;;;;7403715;19;19922;-79
2023/04/17 12:22:05;;;;;;;12.15;7.72;;;17.70;99.90;;;;;;7406174;19;19929;-78
2023/04/17 12:24:34;;;;;;;13.88;8.27;;;17.80;99.90;;;;;;7400490;19;20356;-78
2023/04/17 12:27:02;;;;;;;11.48;8.52;;;17.90;99.90;;;;;;7404962;19;19947;-78
2023/04/17 12:29:31;;;;;;;12.18;9.25;;;17.80;99.90;;;;;;7402388;19;19919;-78
2023/04/17 12:32:00;;;;;;;12.15;8.20;;;17.90;99.90;;;;;;7402814;19;19982;-78
2023/04/17 12:34:29;;;;;;;11.45;7.78;;;18.00;99.90;;;;;;7404244;19;19998;-77
2023/04/17 12:37:01;;;;;;;11.75;7.57;;;18.00;99.90;;;;;;7402279;19;19910;-78
2023/04/17 12:39:31;;;;;;;17.33;8.57;;;18.10;99.90;;;;;;7403566;19;19918;-78
2023/04/17 12:42:00;;;;;;;16.38;8.13;;;18.00;99.90;;;;;;7400312;19;19923;-78
2023/04/17 12:44:29;;;;;;;11.23;7.43;;;18.10;99.90;;;;;;7404388;19;19923;-78
2023/04/17 12:46:58;;;;;;;11.55;7.50;;;18.30;99.90;;;;;;7403184;19;19915;-77
2023/04/17 12:49:27;;;;;;;11.32;6.93;;;18.20;99.90;;;;;;7401967;19;19910;-78
2023/04/17 12:51:55;;;;;;;12.40;7.82;;;18.40;99.90;;;;;;7401768;19;19915;-78